Time;durP1;ratioP1;P1;durP2;ratioP2;P2;SDS_P1;SDS_P2;PMS_P1;PMS_P2;Temp;Humidity;BMP_temperature;BMP_pressure;BME280_temperature;BME280_humidity;BME280_pressure;Samples;Min_cycle;Max_cycle;Signal;HPM_P1;HPM_P2
2022/06/03 00:00:23;;;;;;;1.48;1.38;;;21.60;59.10;;;;;;5096191;28;20020;-46
2022/06/03 00:03:17;;;;;;;5.57;1.33;;;21.60;58.50;;;;;;5071081;28;20024;-49
2022/06/03 00:06:05;;;;;;;2.90;1.50;;;21.60;59.00;;;;;;5059521;28;20040;-58
2022/06/03 00:09:02;;;;;;;3.60;1.40;;;21.60;59.20;;;;;;5075488;28;20036;-57
2022/06/03 00:11:50;;;;;;;4.07;1.52;;;21.60;59.00;;;;;;5055246;28;20029;-47
2022/06/03 00:14:44;;;;;;;1.50;1.40;;;21.60;58.90;;;;;;5074776;28;20021;-53
2022/06/03 00:17:19;;;;;;;2.80;1.40;;;21.60;58.80;;;;;;5052451;28;20378;-48
2022/06/03 00:19:45;;;;;;;2.28;1.40;;;21.60;59.30;;;;;;5082412;28;20021;-48
2022/06/03 00:22:23;;;;;;;2.13;1.20;;;21.50;58.10;;;;;;5082687;28;20044;-48
2022/06/03 00:25:01;;;;;;;;;;;21.60;58.30;;;;;;5066567;28;20048;-45
2022/06/03 00:27:40;;;;;;;3.42;1.20;;;21.50;58.20;;;;;;5078470;28;19938;-47
2022/06/03 00:30:22;;;;;;;1.40;1.30;;;21.50;58.00;;;;;;5078642;28;20044;-48
2022/06/03 00:33:07;;;;;;;1.33;0.93;;;21.60;57.90;;;;;;5044452;28;20080;-47
2022/06/03 00:35:42;;;;;;;2.53;1.20;;;21.50;57.60;;;;;;5077705;28;20070;-45
2022/06/03 00:38:14;;;;;;;1.02;0.93;;;21.50;57.60;;;;;;5077961;28;20029;-48
2022/06/03 00:40:57;;;;;;;1.15;1.00;;;21.50;57.50;;;;;;5068733;28;20166;-50
2022/06/03 00:43:23;;;;;;;1.63;1.20;;;21.50;57.40;;;;;;5057191;28;20032;-46
2022/06/03 00:46:21;;;;;;;0.90;0.85;;;21.50;57.60;;;;;;5069965;28;20082;-52
2022/06/03 00:49:18;;;;;;;1.25;1.00;;;21.50;57.90;;;;;;5076094;28;20040;-51
2022/06/03 00:51:51;;;;;;;1.13;1.00;;;21.50;57.40;;;;;;5024059;28;20029;-50
2022/06/03 00:54:23;;;;;;;1.55;1.00;;;21.40;57.60;;;;;;5052854;28;20773;-48
2022/06/03 00:57:14;;;;;;;1.95;1.00;;;21.40;57.10;;;;;;5080869;28;20028;-53
2022/06/03 00:59:54;;;;;;;1.10;1.00;;;21.40;57.10;;;;;;5060041;28;20028;-48
2022/06/03 01:02:26;;;;;;;0.93;0.90;;;21.40;56.90;;;;;;5069008;28;20024;-45
2022/06/03 01:05:05;;;;;;;1.15;1.00;;;21.40;56.80;;;;;;5073945;28;20040;-49
2022/06/03 01:07:54;;;;;;;0.93;0.82;;;21.40;56.80;;;;;;5080831;28;20042;-49
2022/06/03 01:10:36;;;;;;;1.17;1.05;;;21.30;56.70;;;;;;5078452;28;20778;-46
2022/06/03 01:13:20;;;;;;;0.90;0.90;;;21.30;56.70;;;;;;5055326;28;20079;-52
2022/06/03 01:16:14;;;;;;;0.95;0.80;;;21.30;56.60;;;;;;5082219;28;20031;-43
2022/06/03 01:18:50;;;;;;;1.98;1.33;;;21.30;57.00;;;;;;5084357;28;20021;-49
2022/06/03 01:21:28;;;;;;;1.00;0.90;;;21.20;56.70;;;;;;5076431;28;20049;-48
2022/06/03 01:24:13;;;;;;;1.02;0.95;;;21.20;56.90;;;;;;5070245;28;20091;-50
2022/06/03 01:26:42;;;;;;;1.60;0.80;;;21.20;56.80;;;;;;5079059;28;20514;-51
2022/06/03 01:29:21;;;;;;;1.20;1.10;;;21.20;56.80;;;;;;5070675;28;20035;-47
2022/06/03 01:32:13;;;;;;;1.83;1.10;;;21.20;57.30;;;;;;5047962;28;20044;-48
2022/06/03 01:34:53;;;;;;;2.50;1.10;;;21.20;57.70;;;;;;5043555;28;20040;-50
2022/06/03 01:37:27;;;;;;;1.25;1.02;;;21.10;57.40;;;;;;5047385;28;20033;-50
2022/06/03 01:40:02;;;;;;;1.17;0.85;;;21.10;57.40;;;;;;5051725;28;20549;-51
2022/06/03 01:42:41;;;;;;;1.67;1.08;;;21.10;57.50;;;;;;5083932;28;20024;-58
2022/06/03 01:45:22;;;;;;;1.75;1.10;;;21.10;58.00;;;;;;5068864;28;20059;-49
2022/06/03 01:48:03;;;;;;;1.15;0.80;;;21.10;58.60;;;;;;5068580;28;20039;-52
2022/06/03 01:51:00;;;;;;;0.98;0.85;;;21.10;58.30;;;;;;5066645;28;20028;-51
2022/06/03 01:53:50;;;;;;;2.80;1.00;;;21.10;57.60;;;;;;5079387;28;20088;-50
2022/06/03 01:56:44;;;;;;;1.30;0.98;;;21.10;57.90;;;;;;5075436;28;20398;-56
2022/06/03 01:59:21;;;;;;;1.42;1.00;;;21.10;57.70;;;;;;5057045;28;20588;-44
2022/06/03 02:02:27;;;;;;;1.15;0.80;;;21.10;57.50;;;;;;5052043;28;20028;-54
2022/06/03 02:05:10;;;;;;;1.55;1.00;;;21.10;57.00;;;;;;5068760;28;20033;-57
2022/06/03 02:08:08;;;;;;;2.25;0.93;;;21.10;57.20;;;;;;5064456;28;20028;-46
2022/06/03 02:10:53;;;;;;;1.55;1.00;;;21.10;57.20;;;;;;5079237;28;20065;-42
2022/06/03 02:13:56;;;;;;;2.13;0.90;;;21.10;56.90;;;;;;5076512;28;20551;-55
2022/06/03 02:16:43;;;;;;;1.73;1.25;;;21.10;56.80;;;;;;5081083;28;20036;-54
2022/06/03 02:19:22;;;;;;;2.00;1.00;;;21.10;57.40;;;;;;5081526;28;20686;-52
2022/06/03 02:22:13;;;;;;;1.25;1.10;;;21.10;57.90;;;;;;5077695;28;20052;-56
2022/06/03 02:24:55;;;;;;;1.27;0.80;;;21.00;57.80;;;;;;5074900;28;20040;-58
2022/06/03 02:27:48;;;;;;;1.50;1.00;;;21.10;57.00;;;;;;5060668;28;20049;-51
2022/06/03 02:30:41;;;;;;;7.38;1.00;;;21.00;57.70;;;;;;5064639;28;20035;-50
2022/06/03 02:33:22;;;;;;;1.73;1.20;;;21.00;57.40;;;;;;5061379;28;20040;-55
2022/06/03 02:35:49;;;;;;;7.18;1.17;;;21.00;58.50;;;;;;5069868;28;20024;-56
2022/06/03 02:38:34;;;;;;;;;;;20.90;58.30;;;;;;5075425;28;20028;-56
2022/06/03 02:41:14;;;;;;;1.40;1.30;;;20.90;58.00;;;;;;5078378;28;20497;-58
2022/06/03 02:44:09;;;;;;;3.92;1.60;;;20.90;58.30;;;;;;5059465;28;20032;-56
2022/06/03 02:46:37;;;;;;;2.38;1.38;;;20.90;58.40;;;;;;5061585;28;20031;-58
2022/06/03 02:49:11;;;;;;;1.58;1.40;;;20.90;58.40;;;;;;5079709;28;20579;-55
2022/06/03 02:51:55;;;;;;;2.75;1.38;;;20.90;58.50;;;;;;5080071;28;20671;-54
2022/06/03 02:55:15;;;;;;;1.50;1.27;;;20.90;59.00;;;;;;5047626;28;20037;-58
2022/06/03 02:58:01;;;;;;;1.73;1.40;;;20.90;59.10;;;;;;5037821;28;20051;-54
2022/06/03 03:00:45;;;;;;;1.98;1.50;;;20.90;59.00;;;;;;5026823;28;20101;-55
2022/06/03 03:03:26;;;;;;;1.60;1.50;;;20.90;59.10;;;;;;5035278;28;20087;-57
2022/06/03 03:06:18;;;;;;;2.03;1.60;;;20.90;59.00;;;;;;5036144;28;20077;-58
2022/06/03 03:08:56;;;;;;;1844.18;854.97;;;20.80;59.00;;;;;;5021867;28;20029;-56
2022/06/03 03:11:49;;;;;;;365.13;201.93;;;20.80;59.30;;;;;;5032131;28;20037;-55
2022/06/03 03:14:39;;;;;;;196.38;93.53;;;20.80;58.20;;;;;;5032236;28;20041;-59
2022/06/03 03:17:37;;;;;;;165.15;78.68;;;20.80;58.50;;;;;;5016226;28;20037;-60
2022/06/03 03:20:20;;;;;;;131.18;63.00;;;20.80;59.00;;;;;;5017727;28;20030;-59
2022/06/03 03:22:53;;;;;;;109.22;52.78;;;20.70;58.90;;;;;;5020834;28;20053;-56
2022/06/03 03:26:06;;;;;;;82.45;42.33;;;20.70;58.80;;;;;;5029210;28;20053;-59
2022/06/03 03:28:55;;;;;;;68.97;34.38;;;20.70;58.60;;;;;;5008635;28;21889;-55
2022/06/03 03:31:30;;;;;;;;;;;20.70;58.70;;;;;;5011102;28;20071;-57
2022/06/03 03:34:28;;;;;;;53.70;23.73;;;20.60;58.60;;;;;;5049060;28;19923;-54
2022/06/03 03:37:24;;;;;;;39.70;20.58;;;20.60;58.60;;;;;;5047031;28;20029;-51
2022/06/03 03:40:30;;;;;;;32.67;18.08;;;20.60;58.60;;;;;;5033841;28;20075;-53
2022/06/03 03:43:20;;;;;;;30.25;15.20;;;20.60;58.60;;;;;;5029371;28;20033;-55
2022/06/03 03:46:23;;;;;;;21.58;12.45;;;20.50;58.70;;;;;;5048446;28;20053;-59
2022/06/03 03:49:13;;;;;;;25.65;12.60;;;20.50;58.60;;;;;;5037234;28;20835;-57
2022/06/03 03:52:03;;;;;;;16.17;9.95;;;20.50;58.70;;;;;;5035074;28;20061;-59
2022/06/03 03:54:47;;;;;;;14.95;7.97;;;20.40;58.60;;;;;;5040103;28;20034;-58
2022/06/03 03:57:39;;;;;;;18.55;8.98;;;20.40;58.50;;;;;;5037498;28;20029;-53
2022/06/03 04:00:14;;;;;;;13.43;7.72;;;20.40;59.50;;;;;;5001228;28;20053;-53
2022/06/03 04:02:43;;;;;;;13.20;7.97;;;20.30;59.60;;;;;;5055242;28;20032;-58
2022/06/03 04:05:30;;;;;;;13.25;7.80;;;20.30;59.70;;;;;;5069378;28;20045;-54
2022/06/03 04:08:27;;;;;;;14.40;7.80;;;20.30;59.70;;;;;;5078958;28;20024;-58
2022/06/03 04:11:31;;;;;;;13.38;7.70;;;20.40;59.70;;;;;;5073433;28;20059;-58
2022/06/03 04:14:02;;;;;;;12.10;6.43;;;20.40;59.70;;;;;;5080214;28;20028;-54
2022/06/03 04:16:47;;;;;;;11.75;6.80;;;20.30;59.60;;;;;;5071426;28;20109;-55
2022/06/03 04:19:44;;;;;;;12.32;6.60;;;20.30;59.70;;;;;;5079993;28;20025;-54
2022/06/03 04:22:25;;;;;;;11.25;6.07;;;20.30;59.70;;;;;;5057574;28;20052;-57
2022/06/03 04:25:14;;;;;;;10.52;5.90;;;20.40;59.70;;;;;;5078033;28;20104;-57
2022/06/03 04:27:42;;;;;;;;;;;20.40;59.80;;;;;;5073134;28;20036;-52
2022/06/03 04:30:08;;;;;;;;;;;20.40;60.00;;;;;;5085648;28;19909;-54
2022/06/03 04:32:52;;;;;;;11.27;5.65;;;20.40;60.00;;;;;;5085879;28;19954;-54
2022/06/03 04:36:01;;;;;;;9.65;5.90;;;20.40;59.90;;;;;;5076531;28;20089;-56
2022/06/03 04:38:45;;;;;;;8.45;5.78;;;20.40;59.90;;;;;;5072262;28;20024;-54
2022/06/03 04:41:42;;;;;;;10.45;5.85;;;20.50;60.10;;;;;;5079240;28;20033;-56
2022/06/03 04:44:11;;;;;;;11.35;5.65;;;20.50;60.00;;;;;;5079169;28;20036;-55
2022/06/03 04:46:55;;;;;;;9.40;5.65;;;20.50;60.10;;;;;;5079875;28;20020;-52
2022/06/03 04:49:24;;;;;;;9.38;5.53;;;20.50;60.00;;;;;;5062362;28;20037;-57
2022/06/03 04:52:07;;;;;;;7.75;4.95;;;20.60;60.00;;;;;;5078232;28;20070;-57
2022/06/03 04:54:55;;;;;;;10.00;5.20;;;20.60;60.00;;;;;;5061274;28;20405;-54
2022/06/03 04:57:56;;;;;;;7.80;5.03;;;20.60;60.00;;;;;;5079734;28;20433;-55
2022/06/03 05:00:36;;;;;;;8.35;5.15;;;20.60;60.00;;;;;;4999725;28;20145;-58
2022/06/03 05:03:27;;;;;;;8.05;5.10;;;20.60;60.00;;;;;;4997753;28;21482;-58
2022/06/03 05:06:14;;;;;;;7.80;5.10;;;20.70;60.10;;;;;;4998742;28;20165;-57
2022/06/03 05:09:00;;;;;;;10.10;4.82;;;20.70;60.00;;;;;;5000340;28;20034;-57
2022/06/03 05:12:07;;;;;;;7.53;4.70;;;20.70;59.90;;;;;;4999532;28;20034;-55
2022/06/03 05:14:58;;;;;;;7.50;4.72;;;20.70;59.80;;;;;;4997222;28;20038;-58
2022/06/03 05:17:57;;;;;;;8.32;4.88;;;20.70;59.90;;;;;;4982835;28;20046;-57
2022/06/03 05:20:43;;;;;;;8.80;5.03;;;20.80;59.80;;;;;;4998531;28;20039;-53
2022/06/03 05:23:32;;;;;;;8.88;4.97;;;20.80;59.80;;;;;;4982017;28;20105;-58
2022/06/03 05:26:31;;;;;;;8.88;4.97;;;20.80;60.00;;;;;;4983624;28;20061;-53
2022/06/03 05:29:18;;;;;;;6.30;4.00;;;20.80;60.00;;;;;;4998667;28;20050;-57
2022/06/03 05:32:10;;;;;;;8.85;5.07;;;20.80;60.00;;;;;;4999195;28;20097;-51
2022/06/03 05:35:14;;;;;;;7.82;4.63;;;20.90;60.00;;;;;;4982956;28;20030;-56
2022/06/03 05:38:03;;;;;;;7.20;4.72;;;20.90;60.00;;;;;;5056764;28;20045;-57
2022/06/03 05:40:51;;;;;;;6.88;4.43;;;20.90;60.00;;;;;;5057103;28;20033;-57
2022/06/03 05:43:38;;;;;;;6.70;4.55;;;20.90;59.90;;;;;;5056101;28;20663;-53
2022/06/03 05:46:22;;;;;;;6.43;4.50;;;20.90;59.80;;;;;;5058135;28;20037;-58
2022/06/03 05:49:09;;;;;;;6.03;4.50;;;20.90;59.80;;;;;;5056569;28;20024;-54
2022/06/03 05:51:39;;;;;;;5.30;3.53;;;20.90;59.80;;;;;;5059893;28;20059;-58
2022/06/03 05:54:25;;;;;;;7.43;4.63;;;20.90;59.80;;;;;;5056798;28;20079;-53
2022/06/03 05:57:20;;;;;;;6.50;4.45;;;21.00;59.80;;;;;;5061049;28;20151;-58
2022/06/03 05:59:55;;;;;;;6.63;3.65;;;21.00;59.80;;;;;;5051045;28;20037;-57
2022/06/03 06:02:27;;;;;;;5.63;3.90;;;21.00;59.70;;;;;;5052146;28;20052;-57
2022/06/03 06:05:02;;;;;;;5.82;3.88;;;21.00;59.70;;;;;;5055933;28;20041;-55
2022/06/03 06:07:44;;;;;;;7.00;4.15;;;21.00;59.60;;;;;;5061693;28;20040;-52
2022/06/03 06:10:28;;;;;;;6.68;4.10;;;21.00;59.70;;;;;;5056937;28;20025;-55
2022/06/03 06:13:24;;;;;;;6.22;4.05;;;21.00;59.70;;;;;;5056915;28;20576;-59
2022/06/03 06:16:11;;;;;;;5.15;3.35;;;21.10;59.80;;;;;;5045716;28;20135;-57
2022/06/03 06:19:02;;;;;;;6.25;3.95;;;21.10;59.80;;;;;;5072945;28;20048;-52
2022/06/03 06:21:37;;;;;;;5.72;3.47;;;21.10;59.80;;;;;;5056267;28;20085;-52
2022/06/03 06:24:20;;;;;;;6.40;3.97;;;21.10;59.80;;;;;;5041412;28;20036;-55
2022/06/03 06:27:25;;;;;;;7.47;3.83;;;21.10;59.70;;;;;;5055338;28;20037;-49
2022/06/03 06:29:51;;;;;;;6.28;4.22;;;21.10;59.80;;;;;;4966104;28;20098;-56
2022/06/03 06:32:56;;;;;;;7.25;4.18;;;21.10;59.70;;;;;;4976747;28;20070;-58
2022/06/03 06:35:52;;;;;;;5.63;3.70;;;21.10;59.70;;;;;;4975970;28;20510;-54
2022/06/03 06:38:40;;;;;;;4.85;3.20;;;21.10;59.70;;;;;;4975847;28;20023;-58
2022/06/03 06:41:19;;;;;;;4.65;3.38;;;21.10;59.70;;;;;;4975397;28;20105;-51
2022/06/03 06:44:11;;;;;;;5.18;3.60;;;21.10;59.70;;;;;;4977747;28;20042;-54
2022/06/03 06:46:40;;;;;;;4.95;3.20;;;21.20;59.70;;;;;;4976049;28;20063;-52
2022/06/03 06:49:52;;;;;;;5.97;3.65;;;21.20;59.70;;;;;;4976899;28;20033;-58
2022/06/03 06:52:38;;;;;;;5.55;3.40;;;21.20;59.70;;;;;;4938309;29;21748;-55
2022/06/03 06:55:42;;;;;;;6.07;3.70;;;21.20;59.70;;;;;;4937483;29;20137;-57
2022/06/03 06:58:21;;;;;;;4.40;3.40;;;21.20;59.70;;;;;;4895831;29;20050;-52
2022/06/03 07:00:47;;;;;;;5.43;3.67;;;21.20;59.70;;;;;;4892889;29;20486;-58
2022/06/03 07:03:19;;;;;;;4.95;3.55;;;21.20;59.70;;;;;;4881763;29;20041;-52
2022/06/03 07:06:00;;;;;;;5.63;3.65;;;21.20;59.70;;;;;;4932712;29;20059;-57
2022/06/03 07:08:41;;;;;;;4.93;3.20;;;21.20;59.80;;;;;;4941696;29;20106;-50
2022/06/03 07:11:16;;;;;;;5.22;3.35;;;21.20;59.80;;;;;;4942753;29;20046;-55
2022/06/03 07:13:49;;;;;;;5.25;3.40;;;21.20;59.80;;;;;;4943890;29;20041;-52
2022/06/03 07:19:48;;;;;;;4.22;3.05;;;21.20;59.80;;;;;;4943522;29;20039;-56
2022/06/03 07:22:30;;;;;;;4.28;3.20;;;21.20;59.80;;;;;;4958318;28;20051;-54
2022/06/03 07:25:11;;;;;;;5.15;3.17;;;21.20;59.80;;;;;;4942888;28;20054;-56
2022/06/03 07:27:43;;;;;;;4.55;3.10;;;21.20;59.80;;;;;;4988836;28;20038;-48
2022/06/03 07:30:26;;;;;;;4.20;2.90;;;21.30;59.80;;;;;;5056256;28;20029;-56
2022/06/03 07:33:01;;;;;;;3.85;3.00;;;21.20;60.00;;;;;;5062406;28;20033;-53
2022/06/03 07:35:32;;;;;;;3.10;2.28;;;21.20;59.70;;;;;;5044851;28;20047;-50
2022/06/03 07:38:23;;;;;;;1.95;1.58;;;21.20;60.00;;;;;;5063198;28;20037;-57
2022/06/03 07:41:14;;;;;;;2.00;1.60;;;21.20;59.00;;;;;;5065291;28;20017;-56
2022/06/03 07:43:52;;;;;;;2.03;1.58;;;21.20;58.70;;;;;;5074174;28;20056;-54
2022/06/03 07:46:52;;;;;;;2.08;1.33;;;21.20;58.50;;;;;;5066450;28;20031;-52
2022/06/03 07:49:18;;;;;;;2.28;1.48;;;21.10;58.40;;;;;;5063064;28;20135;-55
2022/06/03 07:51:47;;;;;;;2.42;1.50;;;21.10;58.30;;;;;;5076666;28;20045;-53
2022/06/03 07:54:27;;;;;;;2.97;2.10;;;21.00;58.10;;;;;;5058069;28;20036;-57
2022/06/03 07:57:04;;;;;;;6.60;2.13;;;21.00;58.60;;;;;;5061848;28;20036;-62
2022/06/03 07:59:32;;;;;;;3.95;1.90;;;21.00;59.00;;;;;;5061956;28;20032;-57
2022/06/03 08:02:00;;;;;;;1.80;1.50;;;21.00;59.10;;;;;;5056615;28;20036;-58
2022/06/03 08:04:28;;;;;;;3.70;1.65;;;21.00;58.90;;;;;;5058129;28;20046;-63
2022/06/03 08:12:29;;;;;;;3.08;1.30;;;20.90;58.00;;;;;;5058204;28;20048;-63
2022/06/03 08:14:55;;;;;;;1.83;1.33;;;20.90;57.80;;;;;;5057657;28;20029;-63
2022/06/03 08:17:23;;;;;;;1.55;1.10;;;20.80;57.80;;;;;;5055813;28;20096;-62
2022/06/03 08:19:50;;;;;;;2.15;1.40;;;20.80;57.80;;;;;;5063184;28;20025;-63
2022/06/03 08:22:17;;;;;;;2.10;1.50;;;20.80;57.80;;;;;;5052715;28;20112;-62
2022/06/03 08:24:57;;;;;;;2.33;1.48;;;20.80;58.70;;;;;;5044522;28;20037;-62
2022/06/03 08:27:25;;;;;;;2.65;1.70;;;20.70;58.70;;;;;;5058472;28;20036;-63
2022/06/03 08:30:10;;;;;;;3.05;1.70;;;20.70;58.70;;;;;;5059664;28;20049;-61
2022/06/03 08:32:43;;;;;;;1.85;1.30;;;20.70;58.40;;;;;;5053672;28;20079;-62
2022/06/03 08:35:23;;;;;;;1.63;1.23;;;20.60;58.20;;;;;;5057596;28;20833;-62
2022/06/03 08:37:52;;;;;;;1.77;1.17;;;20.60;58.00;;;;;;5050242;28;20029;-61
2022/06/03 08:40:33;;;;;;;1.65;1.25;;;20.60;57.60;;;;;;5058538;28;20080;-57
2022/06/03 08:43:14;;;;;;;2.13;1.60;;;20.50;57.50;;;;;;5053219;28;20033;-62
2022/06/03 08:45:50;;;;;;;1.88;1.23;;;20.50;58.50;;;;;;5045809;28;20045;-61
2022/06/03 08:48:17;;;;;;;2.17;1.60;;;20.50;58.60;;;;;;5054716;28;20072;-61
2022/06/03 08:50:47;;;;;;;1.95;1.50;;;20.50;58.60;;;;;;5056481;28;20089;-62
2022/06/03 08:53:40;;;;;;;1.25;1.13;;;20.40;58.60;;;;;;5044627;28;20095;-62
2022/06/03 08:56:18;;;;;;;2.00;1.42;;;20.40;58.40;;;;;;5060002;28;20028;-62
2022/06/03 08:58:52;;;;;;;;;;;20.30;58.20;;;;;;5066087;28;20051;-62
2022/06/03 09:01:27;;;;;;;1.67;1.40;;;20.40;58.20;;;;;;5054878;28;19909;-62
2022/06/03 09:04:11;;;;;;;3.67;1.40;;;20.30;58.50;;;;;;5047579;28;20040;-62
2022/06/03 09:07:01;;;;;;;1.40;1.30;;;20.30;58.60;;;;;;5050434;28;20033;-63
2022/06/03 09:09:33;;;;;;;2.22;1.60;;;20.30;58.60;;;;;;5067437;28;20048;-63
2022/06/03 09:12:13;;;;;;;2.53;1.50;;;20.30;58.70;;;;;;5048283;28;20095;-63
2022/06/03 09:14:42;;;;;;;1.60;1.20;;;20.30;58.70;;;;;;5060562;28;20056;-62
2022/06/03 09:17:33;;;;;;;2.08;1.45;;;20.20;58.70;;;;;;5058352;28;20029;-62
2022/06/03 09:20:02;;;;;;;1.77;1.40;;;20.20;58.70;;;;;;5015045;28;20041;-62
2022/06/03 09:22:31;;;;;;;1.17;1.02;;;20.20;58.50;;;;;;5062163;28;20052;-62
2022/06/03 09:24:57;;;;;;;2.03;1.30;;;20.20;58.30;;;;;;5072730;28;20096;-61
2022/06/03 09:27:24;;;;;;;1.60;1.30;;;20.10;58.70;;;;;;5064628;28;20108;-63
2022/06/03 09:29:51;;;;;;;1.73;1.30;;;20.10;58.70;;;;;;5048333;28;20029;-63
2022/06/03 09:32:17;;;;;;;1.85;1.48;;;20.10;58.70;;;;;;5060677;28;20025;-63
2022/06/03 09:34:45;;;;;;;1.50;1.30;;;20.10;58.70;;;;;;5053268;28;20043;-63
2022/06/03 09:37:13;;;;;;;1.77;1.20;;;20.10;58.70;;;;;;5071605;28;20485;-63
2022/06/03 09:39:39;;;;;;;1.35;1.25;;;20.10;58.70;;;;;;5064881;28;20032;-62
2022/06/03 09:42:06;;;;;;;1.70;1.30;;;20.10;58.80;;;;;;5060996;28;20099;-62
2022/06/03 09:44:32;;;;;;;1.60;1.30;;;20.10;58.80;;;;;;5063030;28;20573;-62
2022/06/03 09:47:04;;;;;;;1.77;1.10;;;20.10;58.90;;;;;;5063722;28;20088;-63
2022/06/03 09:49:30;;;;;;;1.50;1.20;;;20.10;58.90;;;;;;5058434;28;20039;-63
2022/06/03 09:51:56;;;;;;;1.40;1.27;;;20.10;59.00;;;;;;5061403;28;20397;-63
2022/06/03 09:54:25;;;;;;;1.38;1.27;;;20.10;59.10;;;;;;5049518;28;20063;-63
2022/06/03 09:56:52;;;;;;;1.40;1.20;;;20.10;59.20;;;;;;5063100;28;20036;-63
2022/06/03 09:59:19;;;;;;;1.75;1.48;;;20.10;59.20;;;;;;5085030;28;20034;-62
2022/06/03 10:01:46;;;;;;;2.20;1.48;;;20.10;59.30;;;;;;5057666;28;20035;-63
2022/06/03 10:04:12;;;;;;;1.70;1.33;;;20.10;59.30;;;;;;5063724;28;20043;-62
2022/06/03 10:06:48;;;;;;;1.10;1.00;;;20.10;59.30;;;;;;5066332;28;20033;-63
2022/06/03 10:17:44;;;;;;;1.25;1.15;;;20.10;59.30;;;;;;5058824;28;20040;-58
2022/06/03 10:20:10;;;;;;;2.25;1.20;;;20.20;59.80;;;;;;5045532;28;20055;-59
2022/06/03 10:22:37;;;;;;;1.40;1.10;;;20.10;59.70;;;;;;5086926;28;20049;-50
2022/06/03 10:25:04;;;;;;;1.63;1.27;;;20.10;59.60;;;;;;5077791;28;20044;-52
2022/06/03 10:27:30;;;;;;;1.67;1.10;;;20.10;59.60;;;;;;5074637;28;20046;-46
2022/06/03 10:29:59;;;;;;;1.90;1.33;;;20.10;59.60;;;;;;5075559;28;20036;-42
2022/06/03 10:32:25;;;;;;;2.15;1.23;;;20.20;59.80;;;;;;5072302;28;20115;-43
2022/06/03 10:34:52;;;;;;;10.30;1.48;;;20.20;60.10;;;;;;5074297;28;20043;-51
2022/06/03 10:37:24;;;;;;;4.95;1.17;;;20.20;60.30;;;;;;5040978;28;20051;-53
2022/06/03 10:39:53;;;;;;;2.90;1.42;;;20.20;60.30;;;;;;5069165;28;20040;-48
2022/06/03 10:42:21;;;;;;;2.75;1.38;;;20.20;60.60;;;;;;5082663;28;20048;-49
2022/06/03 10:44:49;;;;;;;5.63;1.73;;;20.30;60.70;;;;;;5076813;28;20068;-45
2022/06/03 10:47:17;;;;;;;5.00;1.30;;;20.20;60.50;;;;;;5064562;28;20067;-50
2022/06/03 10:49:57;;;;;;;2.63;1.30;;;20.20;60.50;;;;;;5082511;28;20032;-46
2022/06/03 11:01:08;;;;;;;1.63;1.17;;;20.30;60.40;;;;;;5074875;28;20035;-47
2022/06/03 11:03:35;;;;;;;4.82;1.50;;;20.30;60.30;;;;;;5077534;28;20059;-55
2022/06/03 11:06:33;;;;;;;3.15;1.30;;;20.30;60.30;;;;;;5077295;28;20040;-49
2022/06/03 11:09:00;;;;;;;3.90;1.30;;;20.30;60.30;;;;;;5077337;28;20029;-44
2022/06/03 11:11:39;;;;;;;6.97;1.33;;;20.30;60.50;;;;;;5079723;28;20035;-48
2022/06/03 11:14:27;;;;;;;6.82;1.40;;;20.30;60.60;;;;;;5060574;28;20028;-51
2022/06/03 11:17:18;;;;;;;1.42;1.10;;;20.30;60.60;;;;;;5079141;28;20036;-54
2022/06/03 11:19:49;;;;;;;1.90;1.23;;;20.30;60.60;;;;;;5077311;28;20041;-48
2022/06/03 11:22:36;;;;;;;3.78;1.40;;;20.30;60.50;;;;;;5056147;28;20057;-48
2022/06/03 11:25:38;;;;;;;4.72;1.38;;;20.30;60.70;;;;;;5056498;28;20052;-49
2022/06/03 11:28:31;;;;;;;6.65;1.35;;;20.40;60.70;;;;;;5052805;28;20108;-49
2022/06/03 11:31:06;;;;;;;3.85;1.27;;;20.30;60.50;;;;;;5054082;28;20033;-49
2022/06/03 11:33:48;;;;;;;1.70;1.30;;;20.40;60.50;;;;;;5056951;28;20063;-49
2022/06/03 11:36:35;;;;;;;2.08;1.50;;;20.40;60.40;;;;;;5055280;28;20517;-48
2022/06/03 11:39:32;;;;;;;4.18;1.48;;;20.40;60.40;;;;;;5059741;28;20116;-50
2022/06/03 11:42:09;;;;;;;3.70;1.50;;;20.40;60.60;;;;;;5052452;28;20548;-49
2022/06/03 11:44:57;;;;;;;5.38;1.20;;;20.40;60.60;;;;;;5057036;28;20068;-48
2022/06/03 11:47:31;;;;;;;7.38;1.60;;;20.40;60.50;;;;;;5054076;28;20044;-50
2022/06/03 11:49:57;;;;;;;4.40;1.50;;;20.40;60.50;;;;;;5057085;28;20065;-46
2022/06/03 11:52:23;;;;;;;5.60;1.30;;;20.40;60.40;;;;;;5058191;28;20513;-49
2022/06/03 11:54:51;;;;;;;3.20;1.30;;;20.40;60.40;;;;;;5058953;28;20036;-47
2022/06/03 11:57:18;;;;;;;3.58;1.30;;;20.40;60.30;;;;;;5053428;28;20120;-47
2022/06/03 11:59:59;;;;;;;3.30;1.40;;;20.40;60.20;;;;;;5054563;28;20029;-49
2022/06/03 12:03:07;;;;;;;3.80;1.45;;;20.40;60.20;;;;;;5052490;28;20033;-46
2022/06/03 12:05:38;;;;;;;5.13;1.30;;;20.40;60.20;;;;;;5051158;28;20076;-47
2022/06/03 12:08:24;;;;;;;2.20;1.30;;;20.40;60.10;;;;;;5057179;28;20021;-47
2022/06/03 12:11:07;;;;;;;2.03;1.15;;;20.40;60.10;;;;;;5044206;28;20032;-46
2022/06/03 12:13:33;;;;;;;2.47;1.30;;;20.40;60.10;;;;;;5055915;28;20017;-46
2022/06/03 12:16:11;;;;;;;2.03;1.23;;;20.40;60.10;;;;;;5061236;28;20036;-46
2022/06/03 12:18:37;;;;;;;1.40;1.10;;;20.40;60.00;;;;;;5059646;28;20093;-47
2022/06/03 12:21:46;;;;;;;2.85;1.17;;;20.40;60.00;;;;;;5064517;28;20120;-47
2022/06/03 12:24:45;;;;;;;1.50;1.27;;;20.40;60.10;;;;;;5082283;28;20105;-49
2022/06/03 12:27:26;;;;;;;1.75;1.25;;;20.50;60.10;;;;;;5081804;28;20123;-45
2022/06/03 12:30:13;;;;;;;3.58;1.33;;;20.50;60.10;;;;;;5081160;28;20046;-47
2022/06/03 12:32:39;;;;;;;2.47;1.30;;;20.40;60.10;;;;;;5041345;28;20029;-48
2022/06/03 12:35:44;;;;;;;1.67;1.20;;;20.50;60.10;;;;;;5065331;28;20035;-48
2022/06/03 12:38:20;;;;;;;2.45;1.42;;;20.50;60.20;;;;;;5066026;28;20763;-47
2022/06/03 12:40:50;;;;;;;1.77;1.30;;;20.50;60.20;;;;;;5081776;28;20032;-46
2022/06/03 12:43:29;;;;;;;2.60;1.55;;;20.50;60.10;;;;;;5080059;28;20017;-46
2022/06/03 12:46:09;;;;;;;2.40;1.27;;;20.50;60.20;;;;;;5082696;28;20080;-45
2022/06/03 12:48:47;;;;;;;4.32;1.25;;;20.50;60.30;;;;;;5063880;28;20060;-47
2022/06/03 12:51:19;;;;;;;2.15;1.17;;;20.50;60.20;;;;;;5080964;28;20035;-47
2022/06/03 12:53:46;;;;;;;1.77;1.40;;;20.50;60.30;;;;;;5079224;28;20036;-48
2022/06/03 12:56:26;;;;;;;1.83;1.10;;;20.50;60.30;;;;;;5080888;28;20088;-47
2022/06/03 12:59:00;;;;;;;1.50;1.38;;;20.50;60.30;;;;;;5062468;28;20048;-46
2022/06/03 13:01:56;;;;;;;2.53;1.50;;;20.50;60.30;;;;;;5079971;28;20064;-48
2022/06/03 13:04:53;;;;;;;1.73;1.10;;;20.50;60.40;;;;;;5076724;28;20106;-50
2022/06/03 13:07:30;;;;;;;2.13;1.40;;;20.50;60.60;;;;;;5051026;28;20039;-48
2022/06/03 13:10:09;;;;;;;1.83;1.30;;;20.50;60.80;;;;;;5080013;28;20024;-48
2022/06/03 13:12:35;;;;;;;1.77;1.25;;;20.60;60.90;;;;;;5080224;28;20024;-49
2022/06/03 13:15:20;;;;;;;1.60;1.33;;;20.60;61.00;;;;;;5082541;28;20025;-50
2022/06/03 13:18:13;;;;;;;1.85;1.42;;;20.60;60.90;;;;;;5080565;28;20024;-46
2022/06/03 13:20:45;;;;;;;1.33;1.23;;;20.60;61.00;;;;;;5077955;28;20039;-46
2022/06/03 13:23:29;;;;;;;1.70;1.17;;;20.60;61.10;;;;;;5081399;28;20055;-47
2022/06/03 13:26:16;;;;;;;1.50;1.10;;;20.60;61.40;;;;;;5079665;28;20036;-45
2022/06/03 13:28:45;;;;;;;1.85;1.20;;;20.60;61.40;;;;;;5080033;28;20370;-48
2022/06/03 13:31:43;;;;;;;1.58;1.17;;;20.60;61.50;;;;;;5078920;28;20051;-48
2022/06/03 13:34:09;;;;;;;2.05;1.30;;;20.60;61.60;;;;;;5079908;28;20029;-49
2022/06/03 13:36:40;;;;;;;2.10;1.40;;;20.60;61.70;;;;;;5081648;28;20021;-48
2022/06/03 13:39:08;;;;;;;1.90;1.35;;;20.70;61.90;;;;;;5081466;28;20051;-47
2022/06/03 13:44:40;;;;;;;1.30;1.20;;;20.70;62.10;;;;;;5080114;28;20922;-47
2022/06/03 13:47:11;;;;;;;1.30;1.20;;;20.70;62.30;;;;;;5081599;28;20032;-51
2022/06/03 13:49:39;;;;;;;1.98;1.30;;;20.70;62.50;;;;;;5077887;28;20057;-46
2022/06/03 13:52:09;;;;;;;1.77;1.20;;;20.80;62.70;;;;;;5068105;28;20408;-46
2022/06/03 13:54:43;;;;;;;1.60;1.30;;;20.80;62.60;;;;;;5060831;28;20032;-48
2022/06/03 13:57:14;;;;;;;1.50;1.23;;;20.80;62.40;;;;;;5047066;28;20032;-47
2022/06/03 13:59:41;;;;;;;1.50;1.33;;;20.80;61.90;;;;;;5075433;28;20406;-45
2022/06/03 14:02:15;;;;;;;1.30;1.15;;;20.80;61.10;;;;;;5061513;28;20040;-47
2022/06/03 14:05:04;;;;;;;2.20;1.55;;;20.80;60.90;;;;;;5061693;28;20068;-46
2022/06/03 14:07:39;;;;;;;1.67;1.17;;;20.80;60.80;;;;;;5065673;28;20048;-46
2022/06/03 14:10:24;;;;;;;1.35;1.25;;;20.80;61.10;;;;;;5060621;28;20035;-47
2022/06/03 14:12:53;;;;;;;1.23;1.13;;;20.90;61.50;;;;;;5060287;28;20092;-45
2022/06/03 14:15:26;;;;;;;1.20;1.10;;;20.90;61.80;;;;;;5079573;28;20357;-46
2022/06/03 14:17:58;;;;;;;1.67;1.30;;;20.90;61.50;;;;;;5078881;28;20024;-45
2022/06/03 14:20:27;;;;;;;1.50;1.40;;;20.90;60.80;;;;;;5059919;28;20058;-48
2022/06/03 14:23:25;;;;;;;1.33;1.20;;;20.90;60.50;;;;;;5079032;28;20087;-45